Time;durP1;ratioP1;P1;durP2;ratioP2;P2;SDS_P1;SDS_P2;PMS_P1;PMS_P2;Temp;Humidity;BMP_temperature;BMP_pressure;BME280_temperature;BME280_humidity;BME280_pressure;Samples;Min_cycle;Max_cycle;Signal;HPM_P1;HPM_P2
2023/01/02 00:00:13;;;;;;;12.60;3.40;;;;;;;8.39;100.00;101170.28;4994968;28;20193;-41
2023/01/02 00:02:38;;;;;;;8.38;3.58;;;;;;;8.36;100.00;101157.03;4983555;28;20768;-41
2023/01/02 00:05:04;;;;;;;12.43;3.53;;;;;;;8.35;100.00;101153.47;4993669;28;20222;-42
2023/01/02 00:07:30;;;;;;;9.35;3.47;;;;;;;8.38;100.00;101156.06;4993351;28;20273;-42
2023/01/02 00:09:55;;;;;;;13.82;3.72;;;;;;;8.40;100.00;101140.03;4998444;28;20276;-42
2023/01/02 00:12:21;;;;;;;9.20;3.53;;;;;;;8.39;100.00;101143.59;4997742;28;20181;-41
2023/01/02 00:14:46;;;;;;;10.73;3.20;;;;;;;8.38;100.00;101139.19;4996859;28;20208;-43
2023/01/02 00:17:12;;;;;;;8.05;3.80;;;;;;;8.39;100.00;101130.22;4994451;28;20205;-41
2023/01/02 00:19:37;;;;;;;8.18;3.95;;;;;;;8.45;100.00;101127.47;4994112;28;20264;-41
2023/01/02 00:22:02;;;;;;;8.82;3.55;;;;;;;8.40;100.00;101122.22;4983567;28;20193;-41
2023/01/02 00:24:28;;;;;;;9.40;3.33;;;;;;;8.43;100.00;101130.16;4988371;28;20724;-42
2023/01/02 00:26:53;;;;;;;5.82;3.58;;;;;;;8.43;100.00;101122.16;4982942;28;20178;-41
2023/01/02 00:29:19;;;;;;;8.90;3.60;;;;;;;8.44;100.00;101115.03;4992916;28;20280;-41
2023/01/02 00:31:45;;;;;;;8.40;3.75;;;;;;;8.40;100.00;101102.63;4993179;28;20218;-42
2023/01/02 00:34:10;;;;;;;8.63;3.90;;;;;;;8.40;100.00;101110.66;4982537;28;20665;-41
2023/01/02 00:36:35;;;;;;;10.90;4.13;;;;;;;8.37;100.00;101105.38;4999041;28;20624;-41
2023/01/02 00:39:01;;;;;;;9.98;4.05;;;;;;;8.38;100.00;101091.13;5000781;28;20181;-42
2023/01/02 00:41:26;;;;;;;10.10;4.30;;;;;;;8.35;100.00;101069.81;4990176;28;20221;-41
2023/01/02 00:43:52;;;;;;;13.70;4.15;;;;;;;8.37;100.00;101084.00;4997290;28;20228;-41
2023/01/02 00:46:17;;;;;;;7.90;3.45;;;;;;;8.39;100.00;101075.03;4991458;28;20671;-44
2023/01/02 00:48:43;;;;;;;10.77;3.60;;;;;;;8.36;100.00;101074.25;4985488;28;20249;-43
2023/01/02 00:51:09;;;;;;;10.13;4.15;;;;;;;8.34;100.00;101068.06;4990257;28;20189;-42
2023/01/02 00:53:35;;;;;;;8.07;4.25;;;;;;;8.37;100.00;101068.00;4990097;28;20215;-41
2023/01/02 00:56:01;;;;;;;9.50;4.05;;;;;;;8.35;100.00;101075.16;4993105;28;20607;-40
2023/01/02 00:58:26;;;;;;;12.63;4.10;;;;;;;8.32;100.00;101072.56;4999805;28;20179;-42
2023/01/02 01:00:52;;;;;;;8.77;4.10;;;;;;;8.32;100.00;101065.44;4996368;28;20260;-42
2023/01/02 01:03:17;;;;;;;9.98;4.40;;;;;;;8.31;100.00;101053.03;4998520;28;20308;-41
2023/01/02 01:05:43;;;;;;;10.15;4.05;;;;;;;8.31;100.00;101062.78;4988894;28;20237;-43
2023/01/02 01:08:09;;;;;;;11.80;4.47;;;;;;;8.30;100.00;101045.03;4986222;28;20293;-43
2023/01/02 01:10:36;;;;;;;11.20;4.85;;;;;;;8.29;100.00;101052.19;4986348;28;20189;-42
2023/01/02 01:13:02;;;;;;;10.95;4.72;;;;;;;8.28;100.00;101050.41;4982269;28;20610;-43
2023/01/02 01:15:28;;;;;;;14.43;5.20;;;;;;;8.29;100.00;101046.84;4983342;28;20195;-43
2023/01/02 01:17:53;;;;;;;13.02;4.72;;;;;;;8.30;100.00;101039.69;4991888;28;20180;-41
2023/01/02 01:20:19;;;;;;;8.52;4.05;;;;;;;8.29;100.00;101037.94;4983937;28;20526;-43
2023/01/02 01:22:44;;;;;;;12.48;5.35;;;;;;;8.30;100.00;101021.03;5000254;28;20267;-42
2023/01/02 01:25:10;;;;;;;12.00;5.35;;;;;;;8.28;100.00;101026.38;4998976;28;20172;-41
2023/01/02 01:27:36;;;;;;;12.02;5.20;;;;;;;8.30;100.00;101034.38;4989992;28;20212;-43
2023/01/02 01:30:03;;;;;;;10.38;5.03;;;;;;;8.28;100.00;101031.72;5001672;28;20193;-43
2023/01/02 01:32:29;;;;;;;14.00;5.95;;;;;;;8.28;100.00;101042.41;4991261;28;20179;-41
2023/01/02 01:34:54;;;;;;;14.75;5.10;;;;;;;8.27;100.00;101032.66;4988566;28;20193;-43
2023/01/02 01:37:20;;;;;;;13.93;6.13;;;;;;;8.28;100.00;101042.41;4986366;28;20208;-41
2023/01/02 01:39:45;;;;;;;13.10;5.70;;;;;;;8.27;100.00;101035.31;4992359;28;20185;-42
2023/01/02 01:42:12;;;;;;;16.35;5.85;;;;;;;8.26;100.00;101028.22;4990218;28;20315;-42
2023/01/02 01:44:44;;;;;;;13.55;5.88;;;;;;;8.29;100.00;101029.94;4999122;28;20205;-43
2023/01/02 01:47:30;;;;;;;11.02;5.70;;;;;;;8.34;100.00;101028.03;4994336;28;20236;-43
2023/01/02 01:50:21;;;;;;;11.30;5.65;;;;;;;8.33;100.00;101020.94;5003899;28;20255;-43
2023/01/02 01:53:00;;;;;;;14.60;5.63;;;;;;;8.34;100.00;101014.69;4986426;28;20216;-42
2023/01/02 01:55:40;;;;;;;16.02;5.97;;;;;;;8.31;100.00;101012.97;4981948;28;20173;-44
2023/01/02 01:58:22;;;;;;;11.00;5.32;;;;;;;8.32;100.00;101012.03;4983530;28;20189;-44
2023/01/02 02:00:48;;;;;;;12.50;5.85;;;;;;;8.34;100.00;101004.88;4976685;28;20189;-43
2023/01/02 02:03:17;;;;;;;12.70;5.53;;;;;;;8.32;100.00;100990.69;4985625;28;20291;-42
2023/01/02 02:05:44;;;;;;;11.35;5.90;;;;;;;8.32;100.00;100987.16;4989197;28;20727;-43
2023/01/02 02:08:24;;;;;;;10.88;5.95;;;;;;;8.29;100.00;100992.56;4988799;28;20200;-42
2023/01/02 02:10:50;;;;;;;12.20;6.00;;;;;;;8.30;100.00;100983.66;4997414;28;20604;-46
2023/01/02 02:13:16;;;;;;;13.00;5.70;;;;;;;8.31;100.00;100975.59;4996304;28;20338;-47
2023/01/02 02:16:03;;;;;;;13.50;6.32;;;;;;;8.29;100.00;100966.75;4991297;28;20255;-44
2023/01/02 02:18:28;;;;;;;14.60;6.05;;;;;;;8.24;100.00;100974.91;4997056;28;20275;-46
2023/01/02 02:21:03;;;;;;;10.98;6.22;;;;;;;8.31;100.00;100969.38;4984472;28;20268;-46
2023/01/02 02:23:31;;;;;;;17.55;6.30;;;;;;;8.24;100.00;100963.31;4975451;28;20257;-46
2023/01/02 02:26:09;;;;;;;13.40;5.97;;;;;;;8.22;100.00;100970.47;4990289;28;20180;-45
2023/01/02 02:29:03;;;;;;;10.88;6.00;;;;;;;8.20;100.00;100962.53;4988803;28;20205;-48
2023/01/02 02:31:47;;;;;;;12.40;6.32;;;;;;;8.21;100.00;100955.41;4995998;28;20178;-45
2023/01/02 02:34:30;;;;;;;12.13;6.82;;;;;;;8.19;100.00;100946.56;4992679;28;20404;-45
2023/01/02 02:37:05;;;;;;;11.55;5.72;;;;;;;8.20;100.00;100949.19;5000460;28;20250;-44
2023/01/02 02:39:53;;;;;;;11.25;5.65;;;;;;;8.21;100.00;100942.94;4990641;28;20165;-48
2023/01/02 02:42:30;;;;;;;11.38;6.03;;;;;;;8.20;100.00;100927.84;4982005;28;20217;-49
2023/01/02 02:45:05;;;;;;;9.68;6.72;;;;;;;8.21;100.00;100923.38;4987051;28;20177;-47
2023/01/02 02:47:57;;;;;;;12.43;6.00;;;;;;;8.19;100.00;100918.06;4981933;28;20597;-46
2023/01/02 02:50:38;;;;;;;12.93;5.70;;;;;;;8.19;100.00;100923.41;4990696;28;20284;-44
2023/01/02 02:53:10;;;;;;;11.00;6.28;;;;;;;8.19;100.00;100915.41;4971286;28;20204;-46
2023/01/02 02:55:42;;;;;;;12.85;6.10;;;;;;;8.21;100.00;100913.56;5007198;28;20196;-46
2023/01/02 02:58:09;;;;;;;12.38;6.20;;;;;;;8.19;100.00;100910.06;5003353;28;20180;-46
2023/01/02 03:00:34;;;;;;;10.15;6.75;;;;;;;8.19;100.00;100896.72;4996967;28;20185;-46
2023/01/02 03:03:00;;;;;;;13.20;6.00;;;;;;;8.20;100.00;100901.16;4999159;28;20221;-45
2023/01/02 03:05:36;;;;;;;10.27;5.65;;;;;;;8.21;100.00;100902.03;4996880;28;20649;-46
2023/01/02 03:08:24;;;;;;;9.48;5.95;;;;;;;8.16;100.00;100888.81;4987226;28;20192;-46
2023/01/02 03:10:59;;;;;;;14.55;5.78;;;;;;;8.12;100.00;100876.47;4988299;28;20197;-47
2023/01/02 03:13:40;;;;;;;14.07;5.40;;;;;;;8.14;100.00;100869.28;4992553;28;20296;-45
2023/01/02 03:16:16;;;;;;;11.63;5.28;;;;;;;8.09;100.00;100868.56;4995653;28;20173;-46
2023/01/02 03:18:48;;;;;;;13.05;5.95;;;;;;;8.10;100.00;100870.28;4998952;28;20192;-47
2023/01/02 03:21:37;;;;;;;12.40;5.68;;;;;;;8.10;100.00;100867.63;4995875;28;20204;-45
2023/01/02 03:24:10;;;;;;;10.55;5.40;;;;;;;8.10;100.00;100866.75;5002181;28;20698;-45
2023/01/02 03:26:40;;;;;;;8.43;5.13;;;;;;;8.10;100.00;100864.09;4995122;28;20188;-47
2023/01/02 03:29:12;;;;;;;7.95;5.45;;;;;;;8.13;100.00;100862.19;4985922;28;20196;-45
2023/01/02 03:31:40;;;;;;;13.82;5.70;;;;;;;8.11;100.00;100864.06;4990799;28;20185;-45
2023/01/02 03:34:16;;;;;;;9.02;5.57;;;;;;;8.13;100.00;100858.66;4985548;28;20290;-45
2023/01/02 03:36:47;;;;;;;11.95;5.78;;;;;;;8.10;100.00;100848.94;4988487;28;20189;-44
2023/01/02 03:39:18;;;;;;;9.43;5.50;;;;;;;8.13;100.00;100838.16;4994743;28;20189;-43
2023/01/02 03:41:51;;;;;;;8.32;5.32;;;;;;;8.14;100.00;100837.25;5003064;28;20562;-44
2023/01/02 03:44:19;;;;;;;10.30;5.72;;;;;;;8.14;100.00;100842.59;5001464;28;20213;-45
2023/01/02 03:47:17;;;;;;;6.75;5.13;;;;;;;8.16;100.00;100839.91;4997597;28;20194;-45
2023/01/02 03:49:46;;;;;;;6.85;5.20;;;;;;;8.18;100.00;100838.94;4999831;28;20227;-42
2023/01/02 03:52:13;;;;;;;8.00;5.25;;;;;;;8.16;100.00;100819.41;4992162;28;20189;-45
2023/01/02 03:54:38;;;;;;;6.55;5.32;;;;;;;8.19;100.00;100826.47;4987907;28;20276;-45
2023/01/02 03:57:11;;;;;;;8.70;5.93;;;;;;;8.21;100.00;100820.16;4984735;28;20182;-47
2023/01/02 03:59:58;;;;;;;9.00;5.85;;;;;;;8.21;100.00;100819.28;4993599;28;20233;-45
2023/01/02 04:02:38;;;;;;;8.75;5.30;;;;;;;8.25;100.00;100818.28;4991929;28;20208;-48
2023/01/02 04:05:18;;;;;;;7.90;5.50;;;;;;;8.25;100.00;100816.47;4997684;28;20193;-46
2023/01/02 04:07:53;;;;;;;9.20;6.20;;;;;;;8.27;100.00;100803.09;4998079;28;20597;-45
2023/01/02 04:10:20;;;;;;;8.98;6.50;;;;;;;8.29;100.00;100803.03;4999213;28;20185;-47
2023/01/02 04:12:51;;;;;;;9.77;7.28;;;;;;;8.30;100.00;100804.81;5002153;28;20193;-45
2023/01/02 04:15:20;;;;;;;7.45;6.55;;;;;;;8.35;100.00;100805.53;4986721;28;20193;-47
2023/01/02 04:17:52;;;;;;;8.70;7.28;;;;;;;8.31;100.00;100798.53;4989542;28;20256;-43
2023/01/02 04:20:24;;;;;;;11.75;7.93;;;;;;;8.33;100.00;100791.34;4985345;28;20196;-47
2023/01/02 04:22:56;;;;;;;13.95;8.77;;;;;;;8.36;100.00;100783.28;4984388;28;20206;-45
2023/01/02 04:25:29;;;;;;;12.70;8.50;;;;;;;8.36;100.00;100778.78;4990457;28;20190;-45
2023/01/02 04:28:25;;;;;;;13.63;10.35;;;;;;;8.39;100.00;100789.38;5000097;28;20184;-45
2023/01/02 04:31:04;;;;;;;11.40;10.20;;;;;;;8.41;100.00;100786.69;4998944;28;20614;-45
2023/01/02 04:33:36;;;;;;;13.60;10.10;;;;;;;8.39;100.00;100796.50;4995696;28;20224;-46
2023/01/02 04:36:13;;;;;;;14.75;11.05;;;;;;;8.41;100.00;100784.03;4997258;28;20196;-44
2023/01/02 04:38:40;;;;;;;13.52;10.27;;;;;;;8.43;100.00;100776.84;4993575;28;20190;-44
2023/01/02 04:41:06;;;;;;;13.43;11.73;;;;;;;8.45;100.00;100770.53;4987300;28;20247;-45
2023/01/02 04:43:32;;;;;;;14.07;12.55;;;;;;;8.43;100.00;100775.03;4983974;28;20213;-46
2023/01/02 04:45:57;;;;;;;15.07;12.43;;;;;;;8.46;100.00;100763.38;4991632;28;20178;-45
2023/01/02 04:48:23;;;;;;;17.50;12.40;;;;;;;8.45;100.00;100757.19;4988324;28;20220;-43
2023/01/02 04:50:48;;;;;;;20.58;13.00;;;;;;;8.47;100.00;100761.63;4997123;28;20205;-46
2023/01/02 04:53:14;;;;;;;16.98;12.63;;;;;;;8.48;100.00;100766.88;4996235;28;20208;-44
2023/01/02 04:55:40;;;;;;;16.73;12.10;;;;;;;8.52;100.00;100771.22;5001180;28;20220;-44
2023/01/02 04:58:06;;;;;;;19.80;13.48;;;;;;;8.52;100.00;100757.88;4997588;28;20178;-44
2023/01/02 05:00:32;;;;;;;16.33;13.52;;;;;;;8.55;100.00;100757.78;5003845;28;20209;-44
2023/01/02 05:02:57;;;;;;;17.48;14.32;;;;;;;8.59;100.00;100746.09;4985848;28;20248;-45
2023/01/02 05:05:23;;;;;;;18.95;14.48;;;;;;;8.62;100.00;100742.44;4989757;28;20215;-49
2023/01/02 05:07:48;;;;;;;23.17;15.77;;;;;;;8.64;100.00;100744.16;4981049;28;20610;-44
2023/01/02 05:10:14;;;;;;;21.77;15.40;;;;;;;8.70;100.00;100750.19;4986751;28;20281;-46
2023/01/02 05:12:39;;;;;;;24.13;16.35;;;;;;;8.78;100.00;100758.84;4997183;28;20573;-46
2023/01/02 05:15:07;;;;;;;24.65;17.13;;;;;;;8.81;100.00;100761.41;5004109;28;20184;-48
2023/01/02 05:17:37;;;;;;;21.38;18.35;;;;;;;8.87;100.00;100761.22;4999586;28;20268;-45
2023/01/02 05:20:05;;;;;;;25.33;17.00;;;;;;;8.89;100.00;100762.06;4998324;28;20228;-48
2023/01/02 05:25:14;;;;;;;22.58;16.55;;;;;;;8.93;100.00;100747.66;4994205;28;20192;-46
2023/01/02 05:27:40;;;;;;;24.63;17.35;;;;;;;8.96;100.00;100752.91;4991315;28;20181;-47
2023/01/02 05:30:06;;;;;;;21.95;16.50;;;;;;;9.02;100.00;100747.38;4987095;28;20208;-47
2023/01/02 05:32:32;;;;;;;25.83;18.05;;;;;;;9.02;100.00;100738.47;4988615;28;20184;-47
2023/01/02 05:34:57;;;;;;;21.20;16.25;;;;;;;9.08;100.00;100741.81;4990257;28;20626;-46
2023/01/02 05:37:22;;;;;;;24.52;17.02;;;;;;;9.08;100.00;100731.13;4995527;28;20176;-45
2023/01/02 05:39:48;;;;;;;25.35;16.63;;;;;;;9.11;100.00;100737.31;4996383;28;20180;-48
2023/01/02 05:42:13;;;;;;;22.70;14.95;;;;;;;9.13;100.00;100738.13;4998772;28;20256;-43
2023/01/02 05:44:39;;;;;;;25.05;14.75;;;;;;;9.11;100.00;100729.28;4998458;28;20688;-47
2023/01/02 05:47:04;;;;;;;24.67;15.70;;;;;;;9.18;100.00;100729.03;5002216;28;20716;-47
2023/01/02 05:49:30;;;;;;;24.52;14.25;;;;;;;9.18;100.00;100730.81;4993843;28;20223;-44
2023/01/02 05:51:55;;;;;;;21.08;13.90;;;;;;;9.24;100.00;100731.47;4989395;28;20251;-44
2023/01/02 05:54:21;;;;;;;21.98;14.07;;;;;;;9.23;100.00;100716.38;4978957;28;20669;-44
2023/01/02 05:56:46;;;;;;;23.60;13.60;;;;;;;9.26;100.00;100718.06;4984036;28;20182;-45
2023/01/02 05:59:13;;;;;;;22.35;13.45;;;;;;;9.33;100.00;100714.25;4998134;28;20188;-45
2023/01/02 06:01:39;;;;;;;19.10;13.52;;;;;;;9.33;100.00;100727.59;5002697;28;20169;-46
2023/01/02 06:04:04;;;;;;;24.13;14.32;;;;;;;9.36;100.00;100726.63;4996915;28;20212;-46
2023/01/02 06:06:33;;;;;;;21.50;14.75;;;;;;;9.35;100.00;100725.75;4996332;28;20168;-45
2023/01/02 06:08:59;;;;;;;20.90;13.93;;;;;;;9.42;100.00;100721.06;4995464;28;20188;-45
2023/01/02 06:11:26;;;;;;;23.88;14.98;;;;;;;9.44;100.00;100720.09;4994687;28;20215;-45
2023/01/02 06:13:52;;;;;;;23.60;15.00;;;;;;;9.45;100.00;100729.88;4988255;28;20201;-46
2023/01/02 06:16:18;;;;;;;22.73;14.95;;;;;;;9.47;100.00;100729.81;4982495;28;20279;-47
2023/01/02 06:18:44;;;;;;;22.20;15.02;;;;;;;9.48;100.00;100728.88;4990770;28;20215;-48
2023/01/02 06:21:13;;;;;;;24.65;15.18;;;;;;;9.51;100.00;100735.91;4985652;28;20684;-46
2023/01/02 06:23:39;;;;;;;21.10;14.93;;;;;;;9.55;100.00;100724.19;4996813;28;20225;-44
2023/01/02 06:26:07;;;;;;;19.55;14.05;;;;;;;9.55;100.00;100717.03;4995571;28;20181;-46
2023/01/02 06:28:33;;;;;;;25.17;15.32;;;;;;;9.55;100.00;100713.47;4997194;28;20659;-47
2023/01/02 06:31:00;;;;;;;23.08;14.73;;;;;;;9.56;100.00;100724.13;4996165;28;20305;-47
2023/01/02 06:33:27;;;;;;;22.80;15.32;;;;;;;9.58;100.00;100716.06;5004185;28;20270;-47
2023/01/02 06:36:01;;;;;;;20.42;14.15;;;;;;;9.61;100.00;100713.28;4998390;28;20185;-47
2023/01/02 06:38:26;;;;;;;20.10;15.27;;;;;;;9.59;100.00;100725.81;4986564;28;20228;-48
2023/01/02 06:40:57;;;;;;;23.15;13.98;;;;;;;9.65;100.00;100722.94;4982239;28;20186;-46
2023/01/02 06:43:23;;;;;;;18.60;14.93;;;;;;;9.62;100.00;100712.31;4982422;28;20231;-49
2023/01/02 06:45:49;;;;;;;20.05;14.13;;;;;;;9.61;100.00;100714.13;4996628;28;20191;-47
2023/01/02 06:48:15;;;;;;;18.95;14.20;;;;;;;9.64;100.00;100716.72;5003535;28;20189;-47
2023/01/02 06:50:41;;;;;;;15.77;13.60;;;;;;;9.65;100.00;100715.78;4995656;28;20197;-46
2023/01/02 06:53:07;;;;;;;21.67;15.93;;;;;;;9.67;100.00;100726.44;4998316;28;20707;-47
2023/01/02 06:55:33;;;;;;;19.05;15.07;;;;;;;9.64;100.00;100718.50;4994946;28;20627;-47
2023/01/02 06:57:59;;;;;;;25.27;15.48;;;;;;;9.62;100.00;100723.94;4993470;28;20185;-46
2023/01/02 07:00:24;;;;;;;23.88;15.88;;;;;;;9.67;100.00;100726.44;4990535;28;20261;-47
2023/01/02 07:02:50;;;;;;;21.90;16.73;;;;;;;9.64;100.00;100731.88;4983805;28;20224;-46
2023/01/02 07:05:16;;;;;;;20.17;15.63;;;;;;;9.68;100.00;100717.47;4983185;28;20182;-48
2023/01/02 07:07:41;;;;;;;20.58;17.88;;;;;;;9.67;100.00;100721.94;4986581;28;20577;-45
2023/01/02 07:10:07;;;;;;;23.00;17.73;;;;;;;9.70;100.00;100718.28;4992995;28;20303;-45
2023/01/02 07:12:36;;;;;;;25.77;18.80;;;;;;;9.69;100.00;100716.56;4993165;28;20192;-46
2023/01/02 07:15:04;;;;;;;30.73;19.85;;;;;;;9.72;100.00;100729.81;4995785;28;20262;-48
2023/01/02 07:17:31;;;;;;;26.45;19.02;;;;;;;9.75;100.00;100720.78;4995312;28;20246;-47
2023/01/02 07:19:56;;;;;;;24.00;19.48;;;;;;;9.76;100.00;100712.72;4998873;28;20192;-48
2023/01/02 07:22:22;;;;;;;27.02;20.20;;;;;;;9.75;100.00;100720.78;5001529;28;20224;-46
2023/01/02 07:24:47;;;;;;;27.45;20.48;;;;;;;9.74;100.00;100703.88;4989479;28;20783;-48
2023/01/02 07:27:13;;;;;;;26.27;19.75;;;;;;;9.77;100.00;100719.78;4982017;28;20286;-47
2023/01/02 07:29:38;;;;;;;35.45;21.13;;;;;;;9.77;100.00;100711.78;4981908;28;20186;-48
2023/01/02 07:32:04;;;;;;;33.75;21.27;;;;;;;9.75;100.00;100715.44;4994483;28;20703;-46
2023/01/02 07:34:29;;;;;;;27.10;20.08;;;;;;;9.75;100.00;100724.34;5005382;28;20731;-47
2023/01/02 07:36:55;;;;;;;35.83;23.15;;;;;;;9.76;100.00;100718.06;5000794;28;20183;-47
2023/01/02 07:39:22;;;;;;;28.60;21.35;;;;;;;9.77;100.00;100722.47;5001777;28;20224;-46
2023/01/02 07:41:47;;;;;;;25.90;20.52;;;;;;;9.77;100.00;100718.94;4996565;28;20188;-46
2023/01/02 07:44:14;;;;;;;22.90;19.35;;;;;;;9.77;100.00;100733.16;4992744;28;20209;-47
2023/01/02 07:46:39;;;;;;;33.88;22.33;;;;;;;9.79;100.00;100723.28;4993273;28;20188;-47
2023/01/02 07:49:05;;;;;;;28.95;21.10;;;;;;;9.82;100.00;100720.53;4989989;28;20687;-48
2023/01/02 07:51:31;;;;;;;30.83;20.55;;;;;;;9.82;100.00;100716.97;4988495;28;20249;-46
2023/01/02 07:53:57;;;;;;;27.10;21.30;;;;;;;9.86;100.00;100724.84;4990635;28;20212;-48
2023/01/02 07:56:23;;;;;;;28.38;20.48;;;;;;;9.90;100.00;100726.47;4993394;28;20190;-47
2023/01/02 07:58:49;;;;;;;24.83;19.90;;;;;;;9.90;100.00;100729.16;4997224;28;20323;-46
2023/01/02 08:01:15;;;;;;;27.77;20.33;;;;;;;9.94;100.00;100727.22;4996004;28;20542;-48
2023/01/02 08:03:40;;;;;;;27.90;19.50;;;;;;;9.96;100.00;100721.81;4993161;28;20240;-47
2023/01/02 08:06:11;;;;;;;32.65;20.75;;;;;;;10.00;100.00;100726.97;5001879;28;20250;-49
2023/01/02 08:08:37;;;;;;;27.90;19.33;;;;;;;10.00;100.00;100718.97;5003402;28;20285;-48
2023/01/02 08:11:08;;;;;;;22.75;18.25;;;;;;;10.04;100.00;100722.41;4997156;28;20593;-48
2023/01/02 08:13:34;;;;;;;22.75;17.70;;;;;;;10.02;100.00;100721.59;4979857;28;20284;-49
2023/01/02 08:16:10;;;;;;;23.38;18.00;;;;;;;10.06;100.00;100716.06;4982426;28;20360;-47
2023/01/02 08:18:36;;;;;;;25.55;18.80;;;;;;;10.06;100.00;100699.13;4997619;28;20184;-45
2023/01/02 08:21:02;;;;;;;21.27;17.65;;;;;;;10.11;100.00;100707.84;5003313;28;20198;-48
2023/01/02 08:23:28;;;;;;;21.27;16.95;;;;;;;10.17;100.00;100704.06;4995051;28;20315;-45
2023/01/02 08:26:05;;;;;;;23.63;17.98;;;;;;;10.15;100.00;100703.25;4997261;28;20343;-47
2023/01/02 08:28:31;;;;;;;25.48;17.63;;;;;;;10.18;100.00;100698.63;4995996;28;20268;-48
2023/01/02 08:30:57;;;;;;;23.48;17.77;;;;;;;10.18;100.00;100709.34;4999177;28;20189;-50
2023/01/02 08:33:23;;;;;;;22.08;17.23;;;;;;;10.22;100.00;100720.81;5004400;28;20196;-44
2023/01/02 08:35:48;;;;;;;17.45;15.63;;;;;;;10.25;100.00;100710.84;5011543;28;20686;-44
2023/01/02 08:38:14;;;;;;;20.15;17.55;;;;;;;10.22;100.00;100700.25;5011714;28;20214;-43
2023/01/02 08:40:39;;;;;;;18.55;16.17;;;;;;;10.23;100.00;100711.84;5011887;28;20307;-46
2023/01/02 08:43:06;;;;;;;18.63;15.38;;;;;;;10.23;100.00;100711.84;5011291;28;20299;-43
2023/01/02 08:45:32;;;;;;;18.45;15.30;;;;;;;10.26;100.00;100712.59;5011120;28;20858;-47
2023/01/02 08:47:58;;;;;;;18.08;14.73;;;;;;;10.24;100.00;100727.00;5011526;28;20199;-47
2023/01/02 08:50:24;;;;;;;17.42;14.43;;;;;;;10.26;100.00;100719.78;5011437;28;20183;-47
2023/01/02 08:52:49;;;;;;;17.95;15.50;;;;;;;10.26;100.00;100712.59;5011502;28;20189;-43
2023/01/02 08:55:15;;;;;;;15.30;13.73;;;;;;;10.27;100.00;100714.34;5011255;28;20165;-46
2023/01/02 08:57:40;;;;;;;15.35;13.50;;;;;;;10.29;100.00;100717.00;5011598;28;20196;-45
2023/01/02 09:00:07;;;;;;;16.65;13.93;;;;;;;10.30;100.00;100729.47;5010825;28;20192;-46
2023/01/02 09:02:32;;;;;;;15.65;13.55;;;;;;;10.30;100.00;100718.75;5010827;28;20203;-47
2023/01/02 09:04:58;;;;;;;15.35;13.73;;;;;;;10.36;100.00;100712.28;5011452;28;20157;-44
2023/01/02 09:07:24;;;;;;;17.38;14.70;;;;;;;10.37;100.00;100722.94;5011334;28;20620;-42
2023/01/02 09:09:50;;;;;;;15.10;13.65;;;;;;;10.36;100.00;100712.28;5010457;28;20238;-47
2023/01/02 09:12:16;;;;;;;18.10;14.93;;;;;;;10.40;100.00;100717.44;5010363;28;20676;-42
2023/01/02 09:14:41;;;;;;;17.00;14.48;;;;;;;10.42;100.00;100722.75;5010324;28;20197;-46
2023/01/02 09:17:07;;;;;;;17.15;15.27;;;;;;;10.46;100.00;100724.38;5010930;28;20549;-45
2023/01/02 09:19:33;;;;;;;17.45;15.73;;;;;;;10.43;100.00;100719.13;5010950;28;20161;-48
2023/01/02 09:22:00;;;;;;;18.48;16.58;;;;;;;10.46;100.00;100724.38;5010459;28;20223;-43
2023/01/02 09:24:26;;;;;;;18.25;16.27;;;;;;;10.45;100.00;100723.50;5010885;28;20208;-46
2023/01/02 09:26:53;;;;;;;18.02;16.05;;;;;;;10.47;100.00;100721.66;5009680;28;20639;-43
2023/01/02 09:29:19;;;;;;;18.35;16.20;;;;;;;10.50;100.00;100724.19;5010783;28;20200;-45
2023/01/02 09:31:45;;;;;;;18.08;15.80;;;;;;;10.51;100.00;100728.59;5010699;28;20181;-46
2023/01/02 09:34:11;;;;;;;17.58;15.48;;;;;;;10.47;100.00;100721.66;5010726;28;20205;-44
2023/01/02 09:36:36;;;;;;;19.88;14.60;;;;;;;10.47;100.00;100718.06;5010767;28;20161;-46
2023/01/02 09:39:03;;;;;;;17.27;13.80;;;;;;;10.46;100.00;100721.69;5010798;28;20616;-47
2023/01/02 09:41:46;;;;;;;13.30;11.93;;;;;;;10.47;100.00;100718.06;5010254;28;20172;-47
2023/01/02 09:44:16;;;;;;;14.07;10.93;;;;;;;10.49;100.00;100727.81;5010335;28;20307;-47
2023/01/02 09:47:03;;;;;;;9.93;9.00;;;;;;;10.52;100.00;100732.19;5010891;28;20239;-45
2023/01/02 09:49:33;;;;;;;14.75;10.55;;;;;;;10.47;100.00;100748.44;5010896;28;20180;-45
2023/01/02 09:51:59;;;;;;;15.07;10.27;;;;;;;10.42;100.00;100763.78;5010963;28;20204;-46
2023/01/02 09:54:29;;;;;;;15.05;9.85;;;;;;;10.40;100.00;100762.97;5010940;28;20263;-47
2023/01/02 09:57:23;;;;;;;14.73;9.48;;;;;;;10.39;100.00;100763.06;5010291;28;20181;-44
2023/01/02 10:00:08;;;;;;;11.75;6.60;;;;;;;10.33;100.00;100774.00;5010697;28;20165;-45
2023/01/02 10:03:04;;;;;;;11.55;4.53;;;;;;;10.35;100.00;100767.66;5010357;28;20185;-44
2023/01/02 10:06:31;;;;;;;6.63;2.53;;;;;;;10.22;100.00;100774.38;5005482;28;20187;-43
2023/01/02 10:08:59;;;;;;;10.18;2.53;;;;;;;10.18;100.00;100776.28;4986448;28;20201;-48
2023/01/02 10:11:25;;;;;;;7.97;1.60;;;;;;;10.11;100.00;100761.38;5009443;28;20284;-48
2023/01/02 10:14:00;;;;;;;3.58;1.45;;;;;;;10.11;100.00;100767.59;5010418;28;20598;-43
2023/01/02 10:16:31;;;;;;;3.00;1.50;;;;;;;10.09;100.00;100777.50;5006882;28;20686;-45
2023/01/02 10:19:00;;;;;;;8.43;1.25;;;;;;;10.07;100.00;100767.78;4991152;28;20162;-45
2023/01/02 10:21:32;;;;;;;4.20;1.40;;;;;;;10.09;100.00;100785.53;4990972;28;20270;-45
2023/01/02 10:24:22;;;;;;;5.65;1.38;;;;;;;10.03;100.00;100777.72;4990533;28;20209;-44
2023/01/02 10:26:52;;;;;;;3.75;1.52;;;;;;;10.07;100.00;100774.00;4971458;28;20224;-44
2023/01/02 10:29:33;;;;;;;5.57;1.95;;;;;;;10.09;100.00;100771.28;4971390;28;20182;-45
2023/01/02 10:32:01;;;;;;;5.18;1.70;;;;;;;10.10;100.00;100781.03;4971328;28;20257;-43
2023/01/02 10:34:44;;;;;;;3.03;1.90;;;;;;;10.07;100.00;100783.84;4969782;28;20182;-43
2023/01/02 10:37:14;;;;;;;3.17;1.80;;;;;;;10.10;100.00;100787.28;4971017;28;20181;-43
2023/01/02 10:39:45;;;;;;;2.28;1.83;;;;;;;10.06;100.00;100787.47;4971309;28;20234;-43
2023/01/02 10:42:13;;;;;;;2.65;2.00;;;;;;;10.06;100.00;100784.78;4971033;28;20544;-45
2023/01/02 10:44:40;;;;;;;3.70;2.60;;;;;;;10.01;100.00;100797.44;4971042;28;20270;-46
2023/01/02 10:47:30;;;;;;;2.45;2.00;;;;;;;10.05;100.00;100781.22;4971137;28;20174;-45
2023/01/02 10:49:56;;;;;;;3.92;1.80;;;;;;;10.08;100.00;100788.28;4971056;28;20531;-43
2023/01/02 10:52:38;;;;;;;2.80;1.80;;;;;;;10.07;100.00;100787.38;4971367;28;20211;-43
2023/01/02 10:55:04;;;;;;;2.60;1.92;;;;;;;10.05;100.00;100785.69;4970859;28;20198;-44
2023/01/02 10:57:37;;;;;;;3.47;1.85;;;;;;;10.06;100.00;100790.13;4971231;28;20191;-45
2023/01/02 11:00:04;;;;;;;2.45;1.70;;;;;;;10.07;100.00;100795.41;4970895;28;20384;-44
2023/01/02 11:02:38;;;;;;;2.03;1.80;;;;;;;10.07;100.00;100790.06;4970689;28;20286;-43
2023/01/02 11:05:06;;;;;;;3.22;1.65;;;;;;;10.12;100.00;100797.91;4971250;28;20649;-46
2023/01/02 11:07:35;;;;;;;1.45;1.40;;;;;;;10.15;100.00;100802.31;4971162;28;20170;-43
2023/01/02 11:10:01;;;;;;;1.60;1.50;;;;;;;10.12;100.00;100811.31;4974504;28;20166;-44
2023/01/02 11:12:27;;;;;;;2.03;1.58;;;;;;;10.09;100.00;100809.63;4973495;28;20213;-43
2023/01/02 11:15:09;;;;;;;1.52;1.42;;;;;;;10.13;100.00;100807.72;4974136;28;20181;-44
2023/01/02 11:17:41;;;;;;;1.50;1.40;;;;;;;10.06;100.00;100811.56;4973742;28;20170;-44
2023/01/02 11:20:31;;;;;;;3.38;1.80;;;;;;;9.99;100.00;100821.59;4974185;28;20712;-41
2023/01/02 11:23:00;;;;;;;1.50;1.40;;;;;;;9.98;100.00;100832.38;4973911;28;20302;-44
2023/01/02 11:25:31;;;;;;;1.48;1.38;;;;;;;9.91;100.00;100834.38;4974392;28;20198;-45
2023/01/02 11:27:59;;;;;;;2.78;1.50;;;;;;;9.84;100.00;100832.88;4974262;28;20221;-46